createdAt,value
2018-01-13T00:00:04.290Z,0
2018-01-13T00:05:02.777Z,0
2018-01-13T00:10:03.385Z,0
2018-01-13T00:15:02.939Z,0
2018-01-13T00:20:02.612Z,0
2018-01-13T00:25:03.161Z,0
2018-01-13T00:30:02.720Z,0
2018-01-13T00:35:03.321Z,0
2018-01-13T00:40:03.007Z,0
2018-01-13T00:45:02.580Z,0
2018-01-13T00:50:03.020Z,0
2018-01-13T00:55:02.544Z,0
2018-01-13T01:00:03.201Z,0
2018-01-13T01:05:03.430Z,0
2018-01-13T01:10:03.011Z,0
2018-01-13T01:15:02.555Z,0
2018-01-13T01:20:03.058Z,0
2018-01-13T01:25:02.528Z,0
2018-01-13T01:30:03.113Z,0
2018-01-13T01:35:02.731Z,0
2018-01-13T01:40:03.225Z,0
2018-01-13T01:45:02.686Z,0
2018-01-13T01:50:03.245Z,0
2018-01-13T01:55:02.699Z,0
2018-01-13T02:00:03.303Z,0
2018-01-13T02:05:02.784Z,0
2018-01-13T02:10:03.335Z,0
2018-01-13T02:15:02.742Z,0
2018-01-13T02:20:03.346Z,0
2018-01-13T02:25:02.958Z,0
2018-01-13T02:30:02.619Z,0
2018-01-13T02:35:03.137Z,0
2018-01-13T02:40:02.579Z,0
2018-01-13T02:45:03.065Z,0
2018-01-13T02:50:02.746Z,0
2018-01-13T02:55:03.240Z,0
2018-01-13T03:00:02.897Z,0
2018-01-13T03:05:02.554Z,0
2018-01-13T03:10:03.257Z,0
2018-01-13T03:15:02.881Z,0
2018-01-13T03:20:02.539Z,0
2018-01-13T03:25:03.181Z,0
2018-01-13T03:30:02.647Z,0
2018-01-13T03:35:03.139Z,0
2018-01-13T03:40:02.741Z,0
2018-01-13T03:45:03.341Z,0
2018-01-13T03:50:02.773Z,0
2018-01-13T03:55:03.275Z,0
2018-01-13T04:00:03.296Z,0
2018-01-13T04:05:02.964Z,0
2018-01-13T04:10:02.668Z,0
2018-01-13T04:15:03.073Z,0
2018-01-13T04:20:02.761Z,0
2018-01-13T04:25:03.264Z,0
2018-01-13T04:30:02.857Z,0
2018-01-13T04:35:03.300Z,0
2018-01-13T04:40:03.002Z,0
2018-01-13T04:45:02.570Z,0
2018-01-13T04:50:03.208Z,0
2018-01-13T04:55:02.809Z,0
2018-01-13T05:00:02.501Z,0
2018-01-13T05:05:02.926Z,0
2018-01-13T05:10:02.607Z,0
2018-01-13T05:15:03.122Z,0
2018-01-13T05:20:02.635Z,0
2018-01-13T05:25:03.310Z,0
2018-01-13T05:30:02.957Z,0
2018-01-13T05:35:03.399Z,0
2018-01-13T05:40:02.843Z,0
2018-01-13T05:45:03.407Z,0
2018-01-13T05:50:02.901Z,0
2018-01-13T05:55:03.366Z,0
2018-01-13T06:00:02.980Z,0
2018-01-13T06:05:02.476Z,0
2018-01-13T06:10:03.029Z,0
2018-01-13T06:15:02.683Z,0
2018-01-13T06:20:03.258Z,0
2018-01-13T06:25:02.901Z,0
2018-01-13T06:30:02.554Z,0
2018-01-13T06:35:03.331Z,0
2018-01-13T06:40:02.791Z,0
2018-01-13T06:45:03.225Z,0
2018-01-13T06:50:02.787Z,0
2018-01-13T06:55:03.286Z,0
2018-01-13T07:00:02.770Z,1
2018-01-13T07:05:03.433Z,2
2018-01-13T07:10:02.961Z,5
2018-01-13T07:15:02.576Z,10
2018-01-13T07:20:02.987Z,26
2018-01-13T07:25:02.568Z,35
2018-01-13T07:30:03.139Z,43
2018-01-13T07:35:02.534Z,45
2018-01-13T07:40:02.999Z,48
2018-01-13T07:45:02.488Z,54
2018-01-13T07:50:03.128Z,67
2018-01-13T07:55:02.726Z,84
2018-01-13T08:00:03.426Z,109
2018-01-13T08:05:02.840Z,179
2018-01-13T08:10:02.492Z,300
2018-01-13T08:15:03.051Z,418
2018-01-13T08:20:02.746Z,437
2018-01-13T08:25:03.195Z,477
2018-01-13T08:30:02.745Z,494
2018-01-13T08:35:03.253Z,494
2018-01-13T08:40:02.911Z,566
2018-01-13T08:45:03.394Z,479
2018-01-13T08:50:02.952Z,483
2018-01-13T08:55:02.506Z,566
2018-01-13T09:00:03.049Z,628
2018-01-13T09:05:02.683Z,707
2018-01-13T09:10:03.407Z,764
2018-01-13T09:15:02.836Z,844
2018-01-13T09:20:03.349Z,844
2018-01-13T09:25:02.706Z,787
2018-01-13T09:30:03.199Z,844
2018-01-13T09:35:03.026Z,977
2018-01-13T09:40:02.567Z,980
2018-01-13T09:45:03.070Z,952
2018-01-13T09:50:02.606Z,925
2018-01-13T09:55:03.225Z,1000
2018-01-13T10:00:02.637Z,978
2018-01-13T10:05:03.392Z,1000
2018-01-13T10:10:03.005Z,1000
2018-01-13T10:15:03.435Z,1000
2018-01-13T10:20:02.954Z,1000
2018-01-13T10:25:03.412Z,1000
2018-01-13T10:30:02.924Z,1000
2018-01-13T10:35:02.525Z,978
2018-01-13T10:40:03.168Z,1000
2018-01-13T10:45:02.764Z,1000
2018-01-13T10:50:03.409Z,1000
2018-01-13T10:55:02.898Z,1000
2018-01-13T11:00:03.302Z,1000
2018-01-13T11:05:02.871Z,1000
2018-01-13T11:10:02.580Z,1000
2018-01-13T11:15:03.208Z,2000
2018-01-13T11:20:02.813Z,1000
2018-01-13T11:25:03.263Z,1000
2018-01-13T11:30:02.844Z,1000
2018-01-13T11:35:02.610Z,1000
2018-01-13T11:40:03.228Z,1000
2018-01-13T11:45:02.822Z,1000
2018-01-13T11:50:02.459Z,2000
2018-01-13T11:55:02.834Z,2000
2018-01-13T12:00:02.497Z,3000
2018-01-13T12:05:03.049Z,3000
2018-01-13T12:10:02.769Z,4000
2018-01-13T12:15:03.237Z,4000
2018-01-13T12:20:02.936Z,2000
2018-01-13T12:25:02.606Z,2000
2018-01-13T12:30:03.234Z,2000
2018-01-13T12:35:02.971Z,2000
2018-01-13T12:40:02.555Z,3000
2018-01-13T12:45:03.197Z,3000
2018-01-13T12:50:02.795Z,3000
2018-01-13T12:55:02.470Z,3000
2018-01-13T13:00:02.951Z,3000
2018-01-13T13:05:02.503Z,2000
2018-01-13T13:10:03.107Z,2000
2018-01-13T13:15:02.655Z,2000
2018-01-13T13:20:03.152Z,2000
2018-01-13T13:25:02.795Z,2000
2018-01-13T13:30:02.446Z,2000
2018-01-13T13:35:03.035Z,2000
2018-01-13T13:40:02.713Z,2000
2018-01-13T13:45:03.143Z,2000
2018-01-13T13:50:03.076Z,2000
2018-01-13T13:55:02.689Z,2000
2018-01-13T14:00:03.007Z,1000
2018-01-13T14:05:02.676Z,1000
2018-01-13T14:10:03.165Z,1000
2018-01-13T14:15:02.778Z,1000
2018-01-13T14:20:03.244Z,1000
2018-01-13T14:25:02.851Z,1000
2018-01-13T14:30:03.372Z,1000
2018-01-13T14:35:02.992Z,1000
2018-01-13T14:40:02.604Z,1000
2018-01-13T14:45:03.210Z,1000
2018-01-13T14:50:02.764Z,912
2018-01-13T14:55:03.227Z,858
2018-01-13T15:00:02.842Z,727
2018-01-13T15:05:03.315Z,670
2018-01-13T15:10:02.839Z,594
2018-01-13T15:15:03.335Z,564
2018-01-13T15:20:02.900Z,461
2018-01-13T15:25:02.524Z,331
2018-01-13T15:30:03.163Z,260
2018-01-13T15:35:02.687Z,140
2018-01-13T15:40:03.270Z,73
2018-01-13T15:45:02.686Z,69
2018-01-13T15:50:03.151Z,69
2018-01-13T15:55:02.662Z,69
2018-01-13T16:40:03.435Z,0
2018-01-13T16:45:02.902Z,0
2018-01-13T16:50:02.601Z,0
2018-01-13T16:55:03.175Z,0
2018-01-13T17:00:02.749Z,0
2018-01-13T17:05:03.377Z,0
2018-01-13T17:10:02.812Z,0
2018-01-13T17:15:02.429Z,0
2018-01-13T17:20:03.083Z,0
2018-01-13T17:25:02.597Z,0
2018-01-13T17:30:03.308Z,0
2018-01-13T17:35:02.770Z,0
2018-01-13T17:40:02.504Z,0
2018-01-13T17:45:03.006Z,0
2018-01-13T17:50:03.428Z,0
2018-01-13T17:55:03.043Z,0
2018-01-13T18:00:02.511Z,0
2018-01-13T18:05:03.001Z,0
2018-01-13T18:10:02.669Z,0
2018-01-13T18:15:03.092Z,0
2018-01-13T18:20:02.814Z,0
2018-01-13T18:25:03.329Z,0
2018-01-13T18:30:02.988Z,0
2018-01-13T18:35:02.673Z,0
2018-01-13T18:40:03.194Z,0
2018-01-13T18:45:02.836Z,0
2018-01-13T18:50:02.589Z,0
2018-01-13T18:55:02.995Z,0
2018-01-13T19:00:02.499Z,0
2018-01-13T19:05:02.973Z,0
2018-01-13T19:10:02.476Z,0
2018-01-13T19:15:03.140Z,0
2018-01-13T19:20:02.580Z,0
2018-01-13T19:25:03.049Z,0
2018-01-13T19:30:02.677Z,0
2018-01-13T19:35:03.191Z,0
2018-01-13T19:40:02.815Z,0
2018-01-13T19:45:03.261Z,0
2018-01-13T19:50:03.071Z,0
2018-01-13T19:55:02.530Z,0
2018-01-13T20:00:03.187Z,0
2018-01-13T20:05:02.631Z,0
2018-01-13T20:10:03.300Z,0
2018-01-13T20:15:02.907Z,0
2018-01-13T20:20:03.360Z,0
2018-01-13T20:25:02.841Z,0
2018-01-13T20:30:03.444Z,0
2018-01-13T20:35:02.964Z,0
2018-01-13T20:40:02.597Z,0
2018-01-13T20:45:03.126Z,0
2018-01-13T20:50:02.686Z,0
2018-01-13T20:55:03.319Z,0
2018-01-13T21:00:02.822Z,0
2018-01-13T21:05:02.600Z,0
2018-01-13T21:10:03.426Z,0
2018-01-13T21:15:02.985Z,0
2018-01-13T21:20:02.739Z,0
2018-01-13T21:25:03.359Z,0
2018-01-13T21:30:02.996Z,0
2018-01-13T21:35:02.718Z,0
2018-01-13T21:40:03.180Z,0
2018-01-13T21:45:03.283Z,0
2018-01-13T21:50:02.969Z,0
2018-01-13T21:55:02.670Z,0
2018-01-13T22:00:03.322Z,0
2018-01-13T22:05:02.994Z,0
2018-01-13T22:10:02.514Z,0
2018-01-13T22:15:03.191Z,0
2018-01-13T22:20:03.124Z,0
2018-01-13T22:25:02.881Z,0
2018-01-13T22:30:03.593Z,0
2018-01-13T22:35:03.254Z,0
2018-01-13T22:40:02.777Z,0
2018-01-13T22:45:03.427Z,0
2018-01-13T22:50:02.951Z,0
2018-01-13T22:55:03.432Z,0
2018-01-13T23:00:02.874Z,0
2018-01-13T23:05:02.492Z,0
2018-01-13T23:10:03.252Z,0
2018-01-13T23:15:02.771Z,0
2018-01-13T23:20:02.839Z,0
2018-01-13T23:25:02.620Z,0
2018-01-13T23:30:03.205Z,0
2018-01-13T23:35:02.657Z,0
2018-01-13T23:40:03.297Z,0
2018-01-13T23:45:02.747Z,0
2018-01-13T23:50:03.250Z,0
2018-01-13T23:55:02.810Z,0
